sensor_id;sensor_type;location;lat;lon;timestamp;pressure;altitude;pressure_sealevel;temperature;humidity
10881;BME280;5493;48.884;8.338;2023-04-29T00:00:59;99931.66;;;17.45;100.00
10881;BME280;5493;48.884;8.338;2023-04-29T00:03:27;99925.94;;;17.31;100.00
10881;BME280;5493;48.884;8.338;2023-04-29T00:05:56;99923.22;;;17.31;100.00
10881;BME280;5493;48.884;8.338;2023-04-29T00:08:23;99923.19;;;17.26;100.00
10881;BME280;5493;48.884;8.338;2023-04-29T00:10:50;99921.59;;;17.35;100.00
10881;BME280;5493;48.884;8.338;2023-04-29T00:13:17;99926.75;;;17.21;100.00
10881;BME280;5493;48.884;8.338;2023-04-29T00:15:44;99925.13;;;17.31;100.00
10881;BME280;5493;48.884;8.338;2023-04-29T00:18:10;99928.09;;;17.29;100.00
10881;BME280;5493;48.884;8.338;2023-04-29T00:20:38;99930.56;;;17.26;100.00
10881;BME280;5493;48.884;8.338;2023-04-29T00:23:05;99930.03;;;17.13;100.00
10881;BME280;5493;48.884;8.338;2023-04-29T00:25:33;99925.13;;;17.31;100.00
10881;BME280;5493;48.884;8.338;2023-04-29T00:27:59;99933.56;;;17.29;100.00
10881;BME280;5493;48.884;8.338;2023-04-29T00:30:27;99934.41;;;17.14;100.00
10881;BME280;5493;48.884;8.338;2023-04-29T00:32:54;99925.94;;;17.26;100.00
10881;BME280;5493;48.884;8.338;2023-04-29T00:35:21;99935.47;;;17.13;100.00
10881;BME280;5493;48.884;8.338;2023-04-29T00:37:47;99932.19;;;17.16;100.00
10881;BME280;5493;48.884;8.338;2023-04-29T00:40:14;99933.28;;;17.10;100.00
10881;BME280;5493;48.884;8.338;2023-04-29T00:42:41;99941.97;;;16.92;100.00
10881;BME280;5493;48.884;8.338;2023-04-29T00:45:09;99935.19;;;17.05;100.00
10881;BME280;5493;48.884;8.338;2023-04-29T00:47:38;99937.09;;;17.09;100.00
10881;BME280;5493;48.884;8.338;2023-04-29T00:50:05;99948.53;;;16.96;100.00
10881;BME280;5493;48.884;8.338;2023-04-29T00:52:33;99941.13;;;16.82;100.00
10881;BME280;5493;48.884;8.338;2023-04-29T00:55:00;99949.03;;;16.93;100.00
10881;BME280;5493;48.884;8.338;2023-04-29T00:57:27;99945.81;;;16.96;100.00
10881;BME280;5493;48.884;8.338;2023-04-29T00:59:54;99947.38;;;16.77;100.00
10881;BME280;5493;48.884;8.338;2023-04-29T01:02:22;99939.75;;;16.74;100.00
10881;BME280;5493;48.884;8.338;2023-04-29T01:04:51;99943.31;;;16.80;100.00
10881;BME280;5493;48.884;8.338;2023-04-29T01:07:22;99946.53;;;16.66;100.00
10881;BME280;5493;48.884;8.338;2023-04-29T01:10:00;99950.91;;;16.67;100.00
10881;BME280;5493;48.884;8.338;2023-04-29T01:12:32;99945.75;;;16.71;100.00
10881;BME280;5493;48.884;8.338;2023-04-29T01:15:03;99951.97;;;16.56;100.00
10881;BME280;5493;48.884;8.338;2023-04-29T01:17:36;99946.53;;;16.66;100.00
10881;BME280;5493;48.884;8.338;2023-04-29T01:20:08;99945.97;;;16.64;100.00
10881;BME280;5493;48.884;8.338;2023-04-29T01:22:35;99948.19;;;16.67;100.00
10881;BME280;5493;48.884;8.338;2023-04-29T01:25:05;99944.34;;;16.63;100.00
10881;BME280;5493;48.884;8.338;2023-04-29T01:27:35;99951.63;;;16.53;100.00
10881;BME280;5493;48.884;8.338;2023-04-29T01:30:07;99954.44;;;16.63;100.00
10881;BME280;5493;48.884;8.338;2023-04-29T01:32:42;99950.53;;;16.49;100.00
10881;BME280;5493;48.884;8.338;2023-04-29T01:35:20;99957.28;;;16.36;100.00
10881;BME280;5493;48.884;8.338;2023-04-29T01:37:54;99950.34;;;16.65;100.00
10881;BME280;5493;48.884;8.338;2023-04-29T01:40:29;99945.75;;;16.71;100.00
10881;BME280;5493;48.884;8.338;2023-04-29T01:43:01;99949.53;;;16.70;100.00
10881;BME280;5493;48.884;8.338;2023-04-29T01:45:30;99940.28;;;16.76;100.00
10881;BME280;5493;48.884;8.338;2023-04-29T01:47:58;99947.81;;;16.54;100.00
10881;BME280;5493;48.884;8.338;2023-04-29T01:50:26;99940.81;;;16.63;100.00
10881;BME280;5493;48.884;8.338;2023-04-29T01:52:52;99940.53;;;16.64;100.00
10881;BME280;5493;48.884;8.338;2023-04-29T01:55:19;99942.72;;;16.62;100.00
10881;BME280;5493;48.884;8.338;2023-04-29T01:57:47;99949.53;;;16.60;100.00
10881;BME280;5493;48.884;8.338;2023-04-29T02:00:13;99947.91;;;16.69;100.00
10881;BME280;5493;48.884;8.338;2023-04-29T02:02:40;99948.72;;;16.69;100.00
10881;BME280;5493;48.884;8.338;2023-04-29T02:05:07;99955.75;;;16.60;100.00
10881;BME280;5493;48.884;8.338;2023-04-29T02:07:34;99955.53;;;16.67;100.00
10881;BME280;5493;48.884;8.338;2023-04-29T02:10:00;99956.28;;;16.57;100.00
10881;BME280;5493;48.884;8.338;2023-04-29T02:12:27;99948.47;;;16.71;100.00
10881;BME280;5493;48.884;8.338;2023-04-29T02:14:55;99954.44;;;16.73;100.00
10881;BME280;5493;48.884;8.338;2023-04-29T02:17:21;99962.75;;;16.46;100.00
10881;BME280;5493;48.884;8.338;2023-04-29T02:19:48;99961.66;;;16.47;100.00
10881;BME280;5493;48.884;8.338;2023-04-29T02:22:14;99958.19;;;16.57;100.00
10881;BME280;5493;48.884;8.338;2023-04-29T02:24:41;99966.56;;;16.45;100.00
10881;BME280;5493;48.884;8.338;2023-04-29T02:27:07;99967.41;;;16.51;100.00
10881;BME280;5493;48.884;8.338;2023-04-29T02:29:34;99975.19;;;16.32;100.00
10881;BME280;5493;48.884;8.338;2023-04-29T02:32:02;99968.97;;;16.37;100.00
10881;BME280;5493;48.884;8.338;2023-04-29T02:34:28;99971.72;;;16.47;100.00
10881;BME280;5493;48.884;8.338;2023-04-29T02:36:56;99973.00;;;16.24;100.00
10881;BME280;5493;48.884;8.338;2023-04-29T02:39:22;99979.56;;;16.33;100.00
10881;BME280;5493;48.884;8.338;2023-04-29T02:41:49;99983.06;;;16.29;100.00
10881;BME280;5493;48.884;8.338;2023-04-29T02:44:19;99981.47;;;16.28;100.00
10881;BME280;5493;48.884;8.338;2023-04-29T02:46:45;99988.22;;;16.25;100.00
10881;BME280;5493;48.884;8.338;2023-04-29T02:49:13;99987.00;;;16.01;100.00
10881;BME280;5493;48.884;8.338;2023-04-29T02:51:40;99978.56;;;15.97;100.00
10881;BME280;5493;48.884;8.338;2023-04-29T02:54:06;99986.94;;;15.91;100.00
10881;BME280;5493;48.884;8.338;2023-04-29T02:56:33;99996.22;;;15.95;100.00
10881;BME280;5493;48.884;8.338;2023-04-29T02:58:59;99988.50;;;15.82;100.00
10881;BME280;5493;48.884;8.338;2023-04-29T03:01:26;99994.81;;;15.87;100.00
10881;BME280;5493;48.884;8.338;2023-04-29T03:03:53;99994.34;;;15.63;100.00
10881;BME280;5493;48.884;8.338;2023-04-29T03:06:21;99999.28;;;15.71;100.00
10881;BME280;5493;48.884;8.338;2023-04-29T03:08:47;99990.25;;;15.61;100.00
10881;BME280;5493;48.884;8.338;2023-04-29T03:11:14;99994.69;;;15.72;100.00
10881;BME280;5493;48.884;8.338;2023-04-29T03:13:41;100004.69;;;15.66;100.00
10881;BME280;5493;48.884;8.338;2023-04-29T03:16:07;99993.25;;;15.64;100.00
10881;BME280;5493;48.884;8.338;2023-04-29T03:18:34;99988.28;;;15.56;100.00
10881;BME280;5493;48.884;8.338;2023-04-29T03:21:01;99995.72;;;15.39;100.00
10881;BME280;5493;48.884;8.338;2023-04-29T03:23:30;99998.41;;;15.34;100.00
10881;BME280;5493;48.884;8.338;2023-04-29T03:25:56;99998.31;;;15.24;100.00
10881;BME280;5493;48.884;8.338;2023-04-29T03:28:23;99985.91;;;15.33;100.00
10881;BME280;5493;48.884;8.338;2023-04-29T03:30:49;99991.28;;;15.28;100.00
10881;BME280;5493;48.884;8.338;2023-04-29T03:33:16;99995.06;;;15.27;100.00
10881;BME280;5493;48.884;8.338;2023-04-29T03:35:42;100004.25;;;15.21;100.00
10881;BME280;5493;48.884;8.338;2023-04-29T03:38:09;99995.56;;;15.19;100.00
10881;BME280;5493;48.884;8.338;2023-04-29T03:40:37;100003.53;;;15.04;100.00
10881;BME280;5493;48.884;8.338;2023-04-29T03:43:04;100002.19;;;15.06;100.00
10881;BME280;5493;48.884;8.338;2023-04-29T03:45:32;100000.53;;;15.00;100.00
10881;BME280;5493;48.884;8.338;2023-04-29T03:47:58;100007.69;;;15.11;100.00
10881;BME280;5493;48.884;8.338;2023-04-29T03:50:25;100010.97;;;15.13;100.00
10881;BME280;5493;48.884;8.338;2023-04-29T03:52:51;100010.44;;;15.16;100.00
10881;BME280;5493;48.884;8.338;2023-04-29T03:55:18;100011.78;;;15.14;100.00
10881;BME280;5493;48.884;8.338;2023-04-29T03:57:46;100016.81;;;15.00;100.00
10881;BME280;5493;48.884;8.338;2023-04-29T04:00:13;100016.81;;;15.00;100.00
10881;BME280;5493;48.884;8.338;2023-04-29T04:02:40;100031.13;;;14.96;100.00
10881;BME280;5493;48.884;8.338;2023-04-29T04:05:07;100021.47;;;14.83;100.00
10881;BME280;5493;48.884;8.338;2023-04-29T04:07:34;100027.50;;;14.85;100.00
10881;BME280;5493;48.884;8.338;2023-04-29T04:10:01;100030.81;;;14.92;100.00
10881;BME280;5493;48.884;8.338;2023-04-29T04:12:27;100033.44;;;14.82;100.00
10881;BME280;5493;48.884;8.338;2023-04-29T04:14:55;100035.19;;;14.71;100.00
10881;BME280;5493;48.884;8.338;2023-04-29T04:17:23;100040.13;;;14.74;100.00
10881;BME280;5493;48.884;8.338;2023-04-29T04:19:49;100041.06;;;14.63;100.00
10881;BME280;5493;48.884;8.338;2023-04-29T04:22:16;100048.25;;;14.74;100.00
10881;BME280;5493;48.884;8.338;2023-04-29T04:24:43;100047.88;;;14.66;100.00
10881;BME280;5493;48.884;8.338;2023-04-29T04:27:09;100059.63;;;14.71;100.00
10881;BME280;5493;48.884;8.338;2023-04-29T04:29:36;100054.03;;;14.61;100.00
10881;BME280;5493;48.884;8.338;2023-04-29T04:32:04;100063.16;;;14.50;100.00
10881;BME280;5493;48.884;8.338;2023-04-29T04:34:31;100063.81;;;14.41;100.00
10881;BME280;5493;48.884;8.338;2023-04-29T04:36:57;100067.44;;;14.46;100.00
10881;BME280;5493;48.884;8.338;2023-04-29T04:39:24;100074.09;;;14.39;100.00
10881;BME280;5493;48.884;8.338;2023-04-29T04:41:51;100081.03;;;14.51;100.00
10881;BME280;5493;48.884;8.338;2023-04-29T04:44:17;100074.66;;;14.41;100.00
10881;BME280;5493;48.884;8.338;2023-04-29T04:46:44;100084.91;;;14.22;100.00
10881;BME280;5493;48.884;8.338;2023-04-29T04:49:11;100089.88;;;14.42;100.00
10881;BME280;5493;48.884;8.338;2023-04-29T04:51:38;100086.56;;;14.23;100.00
10881;BME280;5493;48.884;8.338;2023-04-29T04:54:04;100094.16;;;14.38;100.00
10881;BME280;5493;48.884;8.338;2023-04-29T04:56:31;100092.03;;;14.40;100.00
10881;BME280;5493;48.884;8.338;2023-04-29T04:58:58;100091.81;;;14.29;100.00
10881;BME280;5493;48.884;8.338;2023-04-29T05:01:25;100099.56;;;14.38;100.00
10881;BME280;5493;48.884;8.338;2023-04-29T05:03:51;100094.88;;;14.50;100.00
10881;BME280;5493;48.884;8.338;2023-04-29T05:06:19;100098.16;;;14.52;100.00
10881;BME280;5493;48.884;8.338;2023-04-29T05:08:46;100102.00;;;14.56;100.00
10881;BME280;5493;48.884;8.338;2023-04-29T05:11:16;100107.78;;;14.43;100.00
10881;BME280;5493;48.884;8.338;2023-04-29T05:13:43;100102.38;;;14.43;100.00
10881;BME280;5493;48.884;8.338;2023-04-29T05:16:10;100093.81;;;14.34;100.00
10881;BME280;5493;48.884;8.338;2023-04-29T05:18:36;100111.56;;;14.42;100.00
10881;BME280;5493;48.884;8.338;2023-04-29T05:21:03;100110.47;;;14.59;100.00
10881;BME280;5493;48.884;8.338;2023-04-29T05:23:31;100110.16;;;14.56;100.00
10881;BME280;5493;48.884;8.338;2023-04-29T05:25:57;100113.28;;;14.48;100.00
10881;BME280;5493;48.884;8.338;2023-04-29T05:28:24;100117.97;;;14.52;100.00
10881;BME280;5493;48.884;8.338;2023-04-29T05:30:50;100120.25;;;14.60;100.00
10881;BME280;5493;48.884;8.338;2023-04-29T05:33:17;100125.59;;;14.72;100.00
10881;BME280;5493;48.884;8.338;2023-04-29T05:35:44;100119.88;;;14.73;100.00
10881;BME280;5493;48.884;8.338;2023-04-29T05:38:11;100120.19;;;14.77;100.00
10881;BME280;5493;48.884;8.338;2023-04-29T05:40:39;100122.69;;;15.00;100.00
10881;BME280;5493;48.884;8.338;2023-04-29T05:43:05;100124.78;;;14.93;100.00
10881;BME280;5493;48.884;8.338;2023-04-29T05:45:32;100130.41;;;14.87;100.00
10881;BME280;5493;48.884;8.338;2023-04-29T05:47:58;100129.81;;;14.85;100.00
10881;BME280;5493;48.884;8.338;2023-04-29T05:50:25;100136.78;;;14.97;100.00
10881;BME280;5493;48.884;8.338;2023-04-29T05:52:51;100133.25;;;14.97;100.00
10881;BME280;5493;48.884;8.338;2023-04-29T05:55:19;100141.44;;;15.02;100.00
10881;BME280;5493;48.884;8.338;2023-04-29T05:57:47;100148.06;;;14.89;100.00
10881;BME280;5493;48.884;8.338;2023-04-29T06:00:13;100148.88;;;14.90;100.00
10881;BME280;5493;48.884;8.338;2023-04-29T06:02:40;100152.59;;;15.27;100.00
10881;BME280;5493;48.884;8.338;2023-04-29T06:05:07;100142.94;;;15.36;100.00
10881;BME280;5493;48.884;8.338;2023-04-29T06:07:34;100141.94;;;15.91;100.00
10881;BME280;5493;48.884;8.338;2023-04-29T06:10:01;100146.84;;;15.94;100.00
10881;BME280;5493;48.884;8.338;2023-04-29T06:12:27;100157.50;;;16.00;100.00
10881;BME280;5493;48.884;8.338;2023-04-29T06:14:56;100150.56;;;16.14;100.00
10881;BME280;5493;48.884;8.338;2023-04-29T06:17:23;100145.91;;;16.47;100.00
10881;BME280;5493;48.884;8.338;2023-04-29T06:19:49;100151.66;;;16.87;100.00
10881;BME280;5493;48.884;8.338;2023-04-29T06:22:16;100144.50;;;16.71;100.00
10881;BME280;5493;48.884;8.338;2023-04-29T06:24:42;100145.88;;;16.42;100.00
10881;BME280;5493;48.884;8.338;2023-04-29T06:27:09;100162.72;;;16.07;100.00
10881;BME280;5493;48.884;8.338;2023-04-29T06:29:35;100156.72;;;16.37;100.00
10881;BME280;5493;48.884;8.338;2023-04-29T06:32:03;100166.47;;;16.28;100.00
10881;BME280;5493;48.884;8.338;2023-04-29T06:34:30;100161.72;;;16.13;100.00
10881;BME280;5493;48.884;8.338;2023-04-29T06:36:56;100172.63;;;16.18;100.00
10881;BME280;5493;48.884;8.338;2023-04-29T06:39:23;100172.22;;;16.31;100.00
10881;BME280;5493;48.884;8.338;2023-04-29T06:41:49;100177.59;;;15.99;100.00
10881;BME280;5493;48.884;8.338;2023-04-29T06:44:16;100176.69;;;16.15;100.00
10881;BME280;5493;48.884;8.338;2023-04-29T06:46:43;100184.63;;;16.22;100.00
10881;BME280;5493;48.884;8.338;2023-04-29T06:49:11;100189.47;;;16.15;100.00
10881;BME280;5493;48.884;8.338;2023-04-29T06:51:38;100189.97;;;16.12;100.00
10881;BME280;5493;48.884;8.338;2023-04-29T06:54:07;100191.34;;;16.09;100.00
10881;BME280;5493;48.884;8.338;2023-04-29T06:56:33;100188.78;;;16.03;100.00
10881;BME280;5493;48.884;8.338;2023-04-29T06:59:00;100193.63;;;15.96;100.00
10881;BME280;5493;48.884;8.338;2023-04-29T07:01:26;100196.50;;;16.11;100.00
10881;BME280;5493;48.884;8.338;2023-04-29T07:03:53;100194.28;;;16.08;100.00
10881;BME280;5493;48.884;8.338;2023-04-29T07:06:20;100196.16;;;16.02;100.00
10881;BME280;5493;48.884;8.338;2023-04-29T07:08:47;100205.16;;;16.35;100.00
10881;BME280;5493;48.884;8.338;2023-04-29T07:11:14;100205.09;;;16.56;100.00
10881;BME280;5493;48.884;8.338;2023-04-29T07:13:40;100203.88;;;16.47;100.00
10881;BME280;5493;48.884;8.338;2023-04-29T07:16:13;100194.28;;;16.35;100.00
10881;BME280;5493;48.884;8.338;2023-04-29T07:18:40;100188.69;;;16.19;100.00
10881;BME280;5493;48.884;8.338;2023-04-29T07:21:06;100210.09;;;16.11;100.00
10881;BME280;5493;48.884;8.338;2023-04-29T07:23:34;100217.19;;;16.44;100.00
10881;BME280;5493;48.884;8.338;2023-04-29T07:26:08;100211.59;;;16.55;100.00
10881;BME280;5493;48.884;8.338;2023-04-29T07:28:34;100220.66;;;16.34;100.00
10881;BME280;5493;48.884;8.338;2023-04-29T07:31:01;100210.53;;;16.30;100.00
10881;BME280;5493;48.884;8.338;2023-04-29T07:33:27;100217.69;;;16.67;100.00
10881;BME280;5493;48.884;8.338;2023-04-29T07:35:55;100219.84;;;16.34;100.00
10881;BME280;5493;48.884;8.338;2023-04-29T07:38:22;100217.94;;;16.34;100.00
10881;BME280;5493;48.884;8.338;2023-04-29T07:40:50;100217.34;;;16.59;100.00
10881;BME280;5493;48.884;8.338;2023-04-29T07:43:16;100221.09;;;16.53;100.00
10881;BME280;5493;48.884;8.338;2023-04-29T07:45:43;100229.31;;;16.58;100.00
10881;BME280;5493;48.884;8.338;2023-04-29T07:48:09;100219.66;;;16.77;100.00
10881;BME280;5493;48.884;8.338;2023-04-29T07:50:36;100226.78;;;16.51;100.00
10881;BME280;5493;48.884;8.338;2023-04-29T07:53:02;100224.81;;;16.73;100.00
10881;BME280;5493;48.884;8.338;2023-04-29T07:55:29;100226.25;;;16.86;100.00
10881;BME280;5493;48.884;8.338;2023-04-29T07:57:57;100225.53;;;16.64;100.00
10881;BME280;5493;48.884;8.338;2023-04-29T08:00:24;100222.31;;;17.09;100.00
10881;BME280;5493;48.884;8.338;2023-04-29T08:02:52;100229.41;;;17.10;100.00
10881;BME280;5493;48.884;8.338;2023-04-29T08:05:19;100227.94;;;16.92;100.00
10881;BME280;5493;48.884;8.338;2023-04-29T08:07:45;100228.69;;;17.87;100.00
10881;BME280;5493;48.884;8.338;2023-04-29T08:10:12;100233.28;;;17.71;100.00
10881;BME280;5493;48.884;8.338;2023-04-29T08:12:39;100238.16;;;17.17;100.00
10881;BME280;5493;48.884;8.338;2023-04-29T08:15:07;100234.72;;;18.04;100.00
10881;BME280;5493;48.884;8.338;2023-04-29T08:17:34;100235.78;;;17.98;100.00
10881;BME280;5493;48.884;8.338;2023-04-29T08:20:00;100231.72;;;18.10;100.00
10881;BME280;5493;48.884;8.338;2023-04-29T08:22:27;100226.16;;;17.65;100.00
10881;BME280;5493;48.884;8.338;2023-04-29T08:24:53;100228.16;;;17.95;100.00
10881;BME280;5493;48.884;8.338;2023-04-29T08:27:20;100236.81;;;17.72;100.00
10881;BME280;5493;48.884;8.338;2023-04-29T08:29:46;100234.94;;;17.25;100.00
10881;BME280;5493;48.884;8.338;2023-04-29T08:32:14;100234.09;;;17.19;100.00
10881;BME280;5493;48.884;8.338;2023-04-29T08:34:40;100236.00;;;17.19;100.00
10881;BME280;5493;48.884;8.338;2023-04-29T08:37:08;100245.22;;;17.13;100.00
10881;BME280;5493;48.884;8.338;2023-04-29T08:39:35;100247.03;;;17.44;100.00
10881;BME280;5493;48.884;8.338;2023-04-29T08:42:07;100249.72;;;17.34;100.00
10881;BME280;5493;48.884;8.338;2023-04-29T08:44:34;100251.41;;;17.45;100.00
10881;BME280;5493;48.884;8.338;2023-04-29T08:47:01;100249.03;;;17.12;100.00
10881;BME280;5493;48.884;8.338;2023-04-29T08:49:29;100248.97;;;17.02;100.00
10881;BME280;5493;48.884;8.338;2023-04-29T08:51:56;100255.25;;;17.02;100.00
10881;BME280;5493;48.884;8.338;2023-04-29T08:54:23;100256.31;;;16.64;100.00
10881;BME280;5493;48.884;8.338;2023-04-29T08:56:50;100254.41;;;16.65;100.00
10881;BME280;5493;48.884;8.338;2023-04-29T08:59:17;100259.31;;;16.63;100.00
10881;BME280;5493;48.884;8.338;2023-04-29T09:01:47;100261.78;;;16.38;100.00
10881;BME280;5493;48.884;8.338;2023-04-29T09:04:23;100261.03;;;16.47;100.00
10881;BME280;5493;48.884;8.338;2023-04-29T09:06:56;100265.47;;;16.27;100.00
10881;BME280;5493;48.884;8.338;2023-04-29T09:09:23;100259.22;;;16.26;100.00
10881;BME280;5493;48.884;8.338;2023-04-29T09:11:50;100271.97;;;16.20;100.00
10881;BME280;5493;48.884;8.338;2023-04-29T09:14:17;100274.41;;;16.22;100.00
10881;BME280;5493;48.884;8.338;2023-04-29T09:16:45;100270.97;;;16.05;100.00
10881;BME280;5493;48.884;8.338;2023-04-29T09:19:28;100270.41;;;16.30;100.00
10881;BME280;5493;48.884;8.338;2023-04-29T09:21:56;100272.28;;;16.29;100.00
10881;BME280;5493;48.884;8.338;2023-04-29T09:24:24;100280.50;;;16.07;100.00
10881;BME280;5493;48.884;8.338;2023-04-29T09:26:51;100280.00;;;16.37;100.00
10881;BME280;5493;48.884;8.338;2023-04-29T09:29:17;100279.56;;;16.50;100.00
10881;BME280;5493;48.884;8.338;2023-04-29T09:31:44;100269.72;;;16.71;100.00
10881;BME280;5493;48.884;8.338;2023-04-29T09:34:11;100273.31;;;16.77;100.00
10881;BME280;5493;48.884;8.338;2023-04-29T09:36:41;100272.53;;;16.54;100.00
10881;BME280;5493;48.884;8.338;2023-04-29T09:39:11;100272.53;;;16.54;100.00
10881;BME280;5493;48.884;8.338;2023-04-29T09:41:56;100272.50;;;16.49;100.00
10881;BME280;5493;48.884;8.338;2023-04-29T09:44:24;100274.81;;;16.62;100.00
10881;BME280;5493;48.884;8.338;2023-04-29T09:46:54;100269.63;;;16.61;100.00
10881;BME280;5493;48.884;8.338;2023-04-29T09:49:22;100279.63;;;16.55;100.00
10881;BME280;5493;48.884;8.338;2023-04-29T09:51:54;100280.47;;;16.29;100.00
10881;BME280;5493;48.884;8.338;2023-04-29T09:54:23;100275.03;;;16.88;100.00
10881;BME280;5493;48.884;8.338;2023-04-29T09:56:51;100270.03;;;16.75;100.00
10881;BME280;5493;48.884;8.338;2023-04-29T09:59:18;100280.28;;;16.99;100.00
10881;BME280;5493;48.884;8.338;2023-04-29T10:01:47;100279.88;;;17.17;100.00
10881;BME280;5493;48.884;8.338;2023-04-29T10:04:15;100275.09;;;17.40;100.00
10881;BME280;5493;48.884;8.338;2023-04-29T10:06:43;100277.66;;;17.56;100.00
10881;BME280;5493;48.884;8.338;2023-04-29T10:09:12;100274.41;;;17.59;100.00
10881;BME280;5493;48.884;8.338;2023-04-29T10:11:43;100270.34;;;17.20;100.00
10881;BME280;5493;48.884;8.338;2023-04-29T10:14:11;100275.31;;;17.33;100.00
10881;BME280;5493;48.884;8.338;2023-04-29T10:16:47;100268.50;;;16.89;100.00
10881;BME280;5493;48.884;8.338;2023-04-29T10:19:29;100268.34;;;17.05;100.00
10881;BME280;5493;48.884;8.338;2023-04-29T10:21:59;100262.16;;;17.20;100.00
10881;BME280;5493;48.884;8.338;2023-04-29T10:24:31;100273.09;;;17.25;100.00
10881;BME280;5493;48.884;8.338;2023-04-29T10:26:59;100272.78;;;17.16;100.00
10881;BME280;5493;48.884;8.338;2023-04-29T10:29:29;100265.59;;;17.05;100.00
10881;BME280;5493;48.884;8.338;2023-04-29T10:31:57;100263.53;;;17.17;100.00
10881;BME280;5493;48.884;8.338;2023-04-29T10:34:25;100265.03;;;17.45;100.00
10881;BME280;5493;48.884;8.338;2023-04-29T10:36:52;100261.84;;;17.58;100.00
10881;BME280;5493;48.884;8.338;2023-04-29T10:39:31;100261.91;;;17.68;100.00
10881;BME280;5493;48.884;8.338;2023-04-29T10:42:04;100254.38;;;18.06;100.00
10881;BME280;5493;48.884;8.338;2023-04-29T10:47:41;100253.31;;;18.32;100.00
10881;BME280;5493;48.884;8.338;2023-04-29T10:50:08;100256.59;;;18.34;100.00
10881;BME280;5493;48.884;8.338;2023-04-29T10:52:50;100251.69;;;19.12;100.00
10881;BME280;5493;48.884;8.338;2023-04-29T10:55:17;100244.91;;;18.79;100.00
10881;BME280;5493;48.884;8.338;2023-04-29T10:57:44;100246.72;;;19.34;100.00
10881;BME280;5493;48.884;8.338;2023-04-29T11:00:20;100241.34;;;18.89;100.00
10881;BME280;5493;48.884;8.338;2023-04-29T11:02:47;100239.13;;;19.11;100.00
10881;BME280;5493;48.884;8.338;2023-04-29T11:05:13;100238.19;;;19.51;100.00
10881;BME280;5493;48.884;8.338;2023-04-29T11:07:44;100236.28;;;19.56;100.00
10881;BME280;5493;48.884;8.338;2023-04-29T11:10:11;100239.03;;;19.56;100.00
10881;BME280;5493;48.884;8.338;2023-04-29T11:12:38;100234.38;;;20.06;100.00
10881;BME280;5493;48.884;8.338;2023-04-29T11:15:07;100232.72;;;20.05;100.00
10881;BME280;5493;48.884;8.338;2023-04-29T11:17:36;100230.81;;;20.05;100.00
10881;BME280;5493;48.884;8.338;2023-04-29T11:20:09;100227.50;;;20.08;100.00
10881;BME280;5493;48.884;8.338;2023-04-29T11:22:38;100224.81;;;19.39;100.00
10881;BME280;5493;48.884;8.338;2023-04-29T11:25:06;100228.59;;;19.63;100.00
10881;BME280;5493;48.884;8.338;2023-04-29T11:27:35;100238.72;;;19.58;100.00
10881;BME280;5493;48.884;8.338;2023-04-29T11:30:03;100237.53;;;19.79;100.00
10881;BME280;5493;48.884;8.338;2023-04-29T11:32:34;100247.69;;;19.74;100.00
10881;BME280;5493;48.884;8.338;2023-04-29T11:35:07;100255.56;;;18.81;100.00
10881;BME280;5493;48.884;8.338;2023-04-29T11:37:34;100248.44;;;18.59;100.00
10881;BME280;5493;48.884;8.338;2023-04-29T11:40:01;100266.81;;;17.77;100.00
10881;BME280;5493;48.884;8.338;2023-04-29T11:42:28;100266.34;;;17.95;100.00
10881;BME280;5493;48.884;8.338;2023-04-29T11:44:54;100272.28;;;17.72;100.00
10881;BME280;5493;48.884;8.338;2023-04-29T11:47:25;100261.88;;;17.63;100.00
10881;BME280;5493;48.884;8.338;2023-04-29T11:50:01;100262.88;;;17.52;100.00
10881;BME280;5493;48.884;8.338;2023-04-29T11:52:28;100266.94;;;17.45;100.00
10881;BME280;5493;48.884;8.338;2023-04-29T11:54:56;100267.16;;;17.38;100.00
10881;BME280;5493;48.884;8.338;2023-04-29T11:57:23;100271.22;;;17.31;100.00
10881;BME280;5493;48.884;8.338;2023-04-29T11:59:49;100278.63;;;16.98;100.00
10881;BME280;5493;48.884;8.338;2023-04-29T12:02:16;100280.34;;;17.09;100.00
10881;BME280;5493;48.884;8.338;2023-04-29T12:04:45;100274.25;;;16.92;100.00
10881;BME280;5493;48.884;8.338;2023-04-29T12:07:14;100278.16;;;16.69;100.00
10881;BME280;5493;48.884;8.338;2023-04-29T12:09:42;100273.31;;;17.13;100.00
10881;BME280;5493;48.884;8.338;2023-04-29T12:12:09;100276.28;;;17.59;100.00
10881;BME280;5493;48.884;8.338;2023-04-29T12:14:36;100285.38;;;17.28;100.00
10881;BME280;5493;48.884;8.338;2023-04-29T12:17:03;100284.09;;;17.45;100.00
10881;BME280;5493;48.884;8.338;2023-04-29T12:19:31;100296.94;;;17.08;100.00
10881;BME280;5493;48.884;8.338;2023-04-29T12:21:58;100293.56;;;17.28;100.00
10881;BME280;5493;48.884;8.338;2023-04-29T12:24:26;100293.66;;;17.43;100.00
10881;BME280;5493;48.884;8.338;2023-04-29T12:26:53;100307.00;;;17.02;100.00
10881;BME280;5493;48.884;8.338;2023-04-29T12:29:20;100302.81;;;17.68;100.00
10881;BME280;5493;48.884;8.338;2023-04-29T12:31:48;100301.34;;;17.56;100.00
10881;BME280;5493;48.884;8.338;2023-04-29T12:34:15;100305.16;;;17.13;100.00
10881;BME280;5493;48.884;8.338;2023-04-29T12:36:42;100297.84;;;16.82;100.00
10881;BME280;5493;48.884;8.338;2023-04-29T12:39:09;100303.16;;;16.98;100.00
10881;BME280;5493;48.884;8.338;2023-04-29T12:41:39;100302.41;;;17.08;100.00
10881;BME280;5493;48.884;8.338;2023-04-29T12:44:06;100305.41;;;17.06;100.00
10881;BME280;5493;48.884;8.338;2023-04-29T12:46:35;100307.53;;;17.04;100.00
10881;BME280;5493;48.884;8.338;2023-04-29T12:49:02;100299.91;;;17.43;100.00
10881;BME280;5493;48.884;8.338;2023-04-29T12:51:29;100299.34;;;17.36;100.00
10881;BME280;5493;48.884;8.338;2023-04-29T12:53:57;100310.59;;;17.50;100.00
10881;BME280;5493;48.884;8.338;2023-04-29T12:56:24;100299.69;;;17.55;100.00
10881;BME280;5493;48.884;8.338;2023-04-29T12:58:51;100304.09;;;17.14;100.00